Airport View

Enter AWOS ICAO identifier for current METAR.

ex. KFNL

KVIS 212256Z AUTO 35005KT 10SM CLR 31/09 A2987 RMK AO2 SLP118 T03060089

21 Sep 2019 23:24

Frequency: 119.925

Phone: 559-651-2418

Other Area AWOS: KHJO - KPTV - KNLC - KFAT

TAF KVIS 211721Z 2118/2218 VRB03KT P6SM SKC FM212200 26005KT P6SM SKC FM220300 VRB02KT P6SM SKC